Time;durP1;ratioP1;P1;durP2;ratioP2;P2;SDS_P1;SDS_P2;PMS_P1;PMS_P2;Temp;Humidity;BMP_temperature;BMP_pressure;BME280_temperature;BME280_humidity;BME280_pressure;Samples;Min_cycle;Max_cycle;Signal;HPM_P1;HPM_P2
2022/10/19 00:01:36;;;;;;;6.78;2.10;;;10.70;99.90;;;;;;4951139;28;20046;-72
2022/10/19 00:04:02;;;;;;;4.97;1.98;;;10.70;99.90;;;;;;4951857;28;20060;-72
2022/10/19 00:06:31;;;;;;;5.43;1.70;;;10.60;99.90;;;;;;4954124;29;20039;-72
2022/10/19 00:08:59;;;;;;;6.97;1.95;;;10.50;99.90;;;;;;4953792;28;20043;-72
2022/10/19 00:11:26;;;;;;;8.70;2.22;;;10.50;99.90;;;;;;4953942;28;20035;-72
2022/10/19 00:13:53;;;;;;;8.10;2.00;;;10.50;99.90;;;;;;4954988;28;20051;-72
2022/10/19 00:16:19;;;;;;;9.60;2.22;;;10.40;99.90;;;;;;4952536;28;20213;-72
2022/10/19 00:18:45;;;;;;;12.45;2.33;;;10.30;99.90;;;;;;4956668;28;20126;-72
2022/10/19 00:21:14;;;;;;;8.57;2.38;;;10.30;99.90;;;;;;4974619;28;20130;-72
2022/10/19 00:23:40;;;;;;;5.72;1.98;;;10.20;99.90;;;;;;4951996;28;20097;-72
2022/10/19 00:26:06;;;;;;;7.65;1.98;;;10.20;99.90;;;;;;4951366;28;20497;-72
2022/10/19 00:28:31;;;;;;;8.15;2.30;;;10.20;99.90;;;;;;4950880;28;20039;-71
2022/10/19 00:31:02;;;;;;;4.88;1.92;;;10.10;99.90;;;;;;4955394;28;20039;-72
2022/10/19 00:33:28;;;;;;;6.82;2.30;;;10.10;99.90;;;;;;4952546;28;20039;-72
2022/10/19 00:35:54;;;;;;;4.38;1.88;;;10.10;99.90;;;;;;4950470;28;20047;-69
2022/10/19 00:38:20;;;;;;;2.95;1.48;;;10.10;99.90;;;;;;4951731;28;20134;-72
2022/10/19 00:40:46;;;;;;;6.68;1.50;;;10.00;99.90;;;;;;4950072;28;20043;-71
2022/10/19 00:43:14;;;;;;;12.63;2.85;;;10.00;99.90;;;;;;4955087;28;20050;-70
2022/10/19 00:45:40;;;;;;;9.38;1.90;;;10.00;99.90;;;;;;4951649;28;20059;-71
2022/10/19 00:48:06;;;;;;;72.95;3.15;;;10.00;99.90;;;;;;4951561;28;20051;-73
2022/10/19 00:50:31;;;;;;;78.32;2.92;;;10.00;99.90;;;;;;4951034;28;20445;-72
2022/10/19 00:52:57;;;;;;;13.98;1.42;;;9.90;99.90;;;;;;4950866;28;20053;-72
2022/10/19 00:55:24;;;;;;;5.18;1.52;;;9.80;99.90;;;;;;4953293;28;20423;-72
2022/10/19 00:57:49;;;;;;;4.22;1.30;;;9.80;99.90;;;;;;4950205;28;20046;-72
2022/10/19 01:00:15;;;;;;;5.93;1.27;;;9.70;99.90;;;;;;4954979;28;20043;-72
2022/10/19 01:02:41;;;;;;;1.80;0.68;;;9.70;99.90;;;;;;4953396;28;20409;-72
2022/10/19 01:05:07;;;;;;;8.77;1.40;;;9.70;99.90;;;;;;4953061;28;20050;-72
2022/10/19 01:07:32;;;;;;;6.60;0.90;;;9.60;99.90;;;;;;4953341;28;20071;-70
2022/10/19 01:09:59;;;;;;;3.13;1.15;;;9.60;99.90;;;;;;4950377;28;20077;-72
2022/10/19 01:12:33;;;;;;;3.42;1.20;;;9.60;99.90;;;;;;4954184;28;20039;-72
2022/10/19 01:15:10;;;;;;;3.53;1.10;;;9.60;99.90;;;;;;4950820;28;20102;-72
2022/10/19 01:17:57;;;;;;;2.08;0.98;;;9.60;99.90;;;;;;4951348;28;20138;-72
2022/10/19 01:20:51;;;;;;;5.30;1.60;;;9.70;99.90;;;;;;4951321;28;20039;-72
2022/10/19 01:23:54;;;;;;;3.17;1.40;;;9.70;99.90;;;;;;4948535;28;20086;-73
2022/10/19 01:26:38;;;;;;;;;;;9.70;99.90;;;;;;4954370;29;20051;-72
2022/10/19 01:29:17;;;;;;;5.10;1.40;;;9.70;99.90;;;;;;4949386;28;19922;-72
2022/10/19 01:31:58;;;;;;;3.38;1.13;;;9.70;99.90;;;;;;4950899;28;20035;-72
2022/10/19 01:34:31;;;;;;;2.83;1.30;;;9.70;99.90;;;;;;4950372;28;20055;-72
2022/10/19 01:37:08;;;;;;;2.97;1.60;;;9.70;99.90;;;;;;4953825;29;20047;-73
2022/10/19 01:39:52;;;;;;;3.25;1.27;;;9.70;99.90;;;;;;4951648;28;20054;-72
2022/10/19 01:42:30;;;;;;;3.85;1.48;;;9.70;99.90;;;;;;4946354;28;20047;-73
2022/10/19 01:45:06;;;;;;;4.30;1.20;;;9.70;99.90;;;;;;4949030;28;20046;-73
2022/10/19 01:47:46;;;;;;;3.08;1.00;;;9.70;99.90;;;;;;4948814;28;20064;-71
2022/10/19 01:50:17;;;;;;;5.00;1.30;;;9.70;99.90;;;;;;4950258;28;20039;-72
2022/10/19 01:52:43;;;;;;;3.28;1.33;;;9.60;99.90;;;;;;4948977;28;20038;-72
2022/10/19 01:55:13;;;;;;;8.55;1.20;;;9.70;99.90;;;;;;4954810;28;20047;-72
2022/10/19 01:57:46;;;;;;;3.13;1.48;;;9.70;99.90;;;;;;4950583;28;20046;-72
2022/10/19 02:00:15;;;;;;;6.95;1.95;;;9.70;99.90;;;;;;4953126;28;20501;-72
2022/10/19 02:02:45;;;;;;;7.47;2.00;;;9.70;99.90;;;;;;4951175;28;20493;-72
2022/10/19 02:05:12;;;;;;;3.08;1.48;;;9.70;99.90;;;;;;4952967;28;20047;-71
2022/10/19 02:07:40;;;;;;;7.22;1.67;;;9.70;99.90;;;;;;4951721;28;20031;-72
2022/10/19 02:10:06;;;;;;;9.25;2.00;;;9.80;99.90;;;;;;4946390;28;20041;-71
2022/10/19 02:12:32;;;;;;;7.63;2.05;;;9.80;99.90;;;;;;4954315;28;20163;-73
2022/10/19 02:15:01;;;;;;;12.52;2.50;;;9.90;99.90;;;;;;4950852;28;20043;-72
2022/10/19 02:17:35;;;;;;;9.40;1.75;;;9.90;99.90;;;;;;4951370;28;20054;-72
2022/10/19 02:20:01;;;;;;;15.25;1.83;;;9.90;99.90;;;;;;4950737;28;20051;-72
2022/10/19 02:22:27;;;;;;;10.95;1.80;;;10.00;99.90;;;;;;4947806;28;20046;-69
2022/10/19 02:24:52;;;;;;;12.88;1.80;;;10.00;99.90;;;;;;4950789;28;20047;-72
2022/10/19 02:27:18;;;;;;;8.38;1.90;;;10.00;99.90;;;;;;4948880;28;20167;-72
2022/10/19 02:29:44;;;;;;;3.58;1.30;;;10.00;99.90;;;;;;4955796;28;20494;-72
2022/10/19 02:32:10;;;;;;;10.45;1.58;;;10.00;99.90;;;;;;4947888;28;20051;-71
2022/10/19 02:34:37;;;;;;;9.40;1.60;;;9.90;99.90;;;;;;4948644;28;20117;-73
2022/10/19 02:37:04;;;;;;;11.07;1.65;;;9.90;99.90;;;;;;4948985;28;20617;-72
2022/10/19 02:39:30;;;;;;;7.93;1.50;;;9.80;99.90;;;;;;4950385;28;20525;-72
2022/10/19 02:42:14;;;;;;;7.60;1.35;;;9.80;99.90;;;;;;4950672;28;20063;-70
2022/10/19 02:45:18;;;;;;;8.90;1.58;;;9.80;99.90;;;;;;4951315;29;20963;-71
2022/10/19 02:47:54;;;;;;;8.52;1.77;;;9.80;99.90;;;;;;4952691;28;20538;-71
2022/10/19 02:50:21;;;;;;;7.50;1.90;;;9.70;99.90;;;;;;4969952;28;20144;-72
2022/10/19 02:52:46;;;;;;;8.73;2.20;;;9.80;99.90;;;;;;4955727;28;20050;-72
2022/10/19 02:55:12;;;;;;;11.00;2.22;;;9.80;99.90;;;;;;4955772;28;20039;-72
2022/10/19 02:57:38;;;;;;;6.78;2.10;;;9.80;99.90;;;;;;4955311;28;20031;-72
2022/10/19 03:00:05;;;;;;;8.77;2.13;;;9.80;99.90;;;;;;4955994;28;20073;-72
2022/10/19 03:02:31;;;;;;;9.60;1.55;;;9.80;99.90;;;;;;4953131;28;20044;-72
2022/10/19 03:04:56;;;;;;;9.52;1.90;;;9.80;99.90;;;;;;4955736;28;20114;-72
2022/10/19 03:07:22;;;;;;;8.38;1.73;;;9.80;99.90;;;;;;4952253;28;20074;-73
2022/10/19 03:09:48;;;;;;;4.63;1.77;;;9.80;99.90;;;;;;4950990;28;20034;-72
2022/10/19 03:12:14;;;;;;;8.48;1.77;;;9.80;99.90;;;;;;4954295;28;20486;-73
2022/10/19 03:14:40;;;;;;;13.38;2.00;;;9.70;99.90;;;;;;4952877;28;20093;-72
2022/10/19 03:17:06;;;;;;;10.75;2.10;;;9.70;99.90;;;;;;4955724;28;20066;-73
2022/10/19 03:19:33;;;;;;;5.53;1.63;;;9.70;99.90;;;;;;4950775;28;20453;-73
2022/10/19 03:21:58;;;;;;;10.10;2.30;;;9.70;99.90;;;;;;4953871;28;20051;-72
2022/10/19 03:24:24;;;;;;;13.70;2.38;;;9.70;99.90;;;;;;4954359;28;20043;-72
2022/10/19 03:26:49;;;;;;;12.73;2.47;;;9.80;99.90;;;;;;4954631;28;20047;-73
2022/10/19 03:29:15;;;;;;;5.32;1.73;;;9.80;99.90;;;;;;4954360;28;20050;-71
2022/10/19 03:31:40;;;;;;;7.20;2.10;;;9.80;99.90;;;;;;4948645;28;20051;-72
2022/10/19 03:34:06;;;;;;;8.70;2.10;;;9.80;99.90;;;;;;4950459;28;20426;-72
2022/10/19 03:36:34;;;;;;;4.90;2.15;;;9.90;99.90;;;;;;4955442;28;20043;-72
2022/10/19 03:39:03;;;;;;;7.63;2.10;;;9.90;99.90;;;;;;4954138;28;20067;-72
2022/10/19 03:41:31;;;;;;;6.07;2.50;;;9.90;99.90;;;;;;4953615;28;20054;-72
2022/10/19 03:43:57;;;;;;;8.48;1.92;;;9.90;99.90;;;;;;4954161;28;20075;-72
2022/10/19 03:46:23;;;;;;;15.18;2.38;;;9.90;99.90;;;;;;4949847;28;20586;-73
2022/10/19 03:48:48;;;;;;;8.70;1.98;;;9.90;99.90;;;;;;4951123;28;20035;-72
2022/10/19 03:51:23;;;;;;;11.60;2.38;;;9.90;99.90;;;;;;4957238;28;20118;-72
2022/10/19 03:53:53;;;;;;;8.27;2.28;;;9.90;99.90;;;;;;4952297;28;20169;-72
2022/10/19 03:56:21;;;;;;;14.23;2.40;;;9.80;99.90;;;;;;4952406;28;20039;-72
2022/10/19 03:58:49;;;;;;;6.20;2.10;;;9.80;99.90;;;;;;4949322;28;20047;-72
2022/10/19 04:01:17;;;;;;;7.75;2.40;;;9.90;99.90;;;;;;4950513;28;20035;-72
2022/10/19 04:03:43;;;;;;;4.40;2.30;;;9.90;99.90;;;;;;4950302;28;20066;-72
2022/10/19 04:06:16;;;;;;;9.13;2.40;;;9.90;99.90;;;;;;4951596;28;20482;-72
2022/10/19 04:08:42;;;;;;;7.95;2.90;;;9.90;99.90;;;;;;4951933;28;20074;-72
2022/10/19 04:11:12;;;;;;;5.15;2.15;;;10.00;99.90;;;;;;4954292;28;20603;-71
2022/10/19 04:13:38;;;;;;;17.05;2.55;;;10.00;99.90;;;;;;4953047;28;20062;-72
2022/10/19 04:16:03;;;;;;;13.25;2.40;;;10.00;99.90;;;;;;4952824;28;20043;-72
2022/10/19 04:18:29;;;;;;;11.30;2.17;;;10.10;99.90;;;;;;4951741;28;20041;-72
2022/10/19 04:20:56;;;;;;;10.63;2.42;;;10.10;99.90;;;;;;4954192;28;20054;-72
2022/10/19 04:23:22;;;;;;;12.07;2.40;;;10.10;99.90;;;;;;4962780;28;20138;-72
2022/10/19 04:25:47;;;;;;;16.15;2.65;;;10.10;99.90;;;;;;4953274;28;20047;-72
2022/10/19 04:28:13;;;;;;;10.10;2.10;;;10.10;99.90;;;;;;4953868;28;20126;-72
2022/10/19 04:30:39;;;;;;;13.55;2.00;;;10.10;99.90;;;;;;4951977;28;20410;-71
2022/10/19 04:33:04;;;;;;;8.30;2.00;;;10.10;99.90;;;;;;4950856;28;20426;-72
2022/10/19 04:35:30;;;;;;;9.30;2.30;;;10.10;99.90;;;;;;4953341;29;20476;-72
2022/10/19 04:37:55;;;;;;;12.30;2.38;;;10.10;99.90;;;;;;4952519;28;20047;-72
2022/10/19 04:40:21;;;;;;;12.25;2.47;;;10.10;99.90;;;;;;4952454;28;20050;-72
2022/10/19 04:42:46;;;;;;;8.60;2.38;;;10.10;99.90;;;;;;4954254;28;20058;-73
2022/10/19 04:45:12;;;;;;;7.85;1.60;;;10.10;99.90;;;;;;4956961;28;20125;-72
2022/10/19 04:47:37;;;;;;;6.13;1.70;;;10.20;99.90;;;;;;4950454;28;20036;-72
2022/10/19 04:50:03;;;;;;;10.75;1.88;;;10.20;99.90;;;;;;4955957;28;20039;-71
2022/10/19 04:52:29;;;;;;;8.45;2.08;;;10.20;99.90;;;;;;4952719;28;20047;-72
2022/10/19 04:54:55;;;;;;;10.15;2.17;;;10.20;99.90;;;;;;4955852;28;20055;-73
2022/10/19 04:57:21;;;;;;;11.48;2.30;;;10.20;99.90;;;;;;4954172;28;20135;-72
2022/10/19 04:59:46;;;;;;;8.25;2.03;;;10.20;99.90;;;;;;4952151;28;20094;-73
2022/10/19 05:02:12;;;;;;;11.07;2.60;;;10.20;99.90;;;;;;4954277;28;20043;-71
2022/10/19 05:04:37;;;;;;;12.13;2.25;;;10.20;99.90;;;;;;4953979;28;20039;-73
2022/10/19 05:07:03;;;;;;;12.10;2.30;;;10.20;99.90;;;;;;4950288;28;20490;-72
2022/10/19 05:09:28;;;;;;;9.05;2.10;;;10.20;99.90;;;;;;4954431;28;20039;-72
2022/10/19 05:11:54;;;;;;;7.32;1.95;;;10.10;99.90;;;;;;4953938;28;20035;-72
2022/10/19 05:14:20;;;;;;;7.72;2.45;;;10.20;99.90;;;;;;4952451;28;20047;-72
2022/10/19 05:16:45;;;;;;;11.13;2.63;;;10.10;99.90;;;;;;4950058;28;20130;-72
2022/10/19 05:19:12;;;;;;;10.05;2.20;;;10.10;99.90;;;;;;4951461;28;20504;-72
2022/10/19 05:21:38;;;;;;;10.82;2.40;;;10.10;99.90;;;;;;4959058;28;20043;-71
2022/10/19 05:24:04;;;;;;;10.88;2.45;;;10.20;99.90;;;;;;4951744;28;20584;-73
2022/10/19 05:26:29;;;;;;;9.23;2.45;;;10.10;99.90;;;;;;4951497;28;20054;-72
2022/10/19 05:29:00;;;;;;;8.95;2.30;;;10.10;99.90;;;;;;4952671;28;20182;-72
2022/10/19 05:31:28;;;;;;;9.98;2.65;;;10.10;99.90;;;;;;4951671;28;20043;-72
2022/10/19 05:33:55;;;;;;;12.73;2.50;;;10.10;99.90;;;;;;4948286;28;20055;-73
2022/10/19 05:36:26;;;;;;;10.55;2.38;;;10.10;99.90;;;;;;4955219;28;20051;-72
2022/10/19 05:38:56;;;;;;;7.50;2.10;;;10.10;99.90;;;;;;4952068;28;20039;-72
2022/10/19 05:41:23;;;;;;;5.93;2.30;;;10.10;99.90;;;;;;4952863;28;20054;-72
2022/10/19 05:43:54;;;;;;;18.48;2.90;;;10.10;99.90;;;;;;4951085;28;20086;-72
2022/10/19 05:46:19;;;;;;;9.07;2.03;;;10.10;99.90;;;;;;4950954;28;20126;-71
2022/10/19 05:48:46;;;;;;;14.10;2.85;;;10.10;99.90;;;;;;4952644;28;20114;-71
2022/10/19 05:51:14;;;;;;;13.27;2.38;;;10.10;99.90;;;;;;4949558;28;20525;-72
2022/10/19 05:53:40;;;;;;;5.32;2.42;;;10.10;99.90;;;;;;4948048;28;20055;-71
2022/10/19 05:56:08;;;;;;;11.68;2.75;;;10.10;99.90;;;;;;4950793;28;20085;-72
2022/10/19 05:58:34;;;;;;;10.95;2.55;;;10.10;99.90;;;;;;4954237;28;20043;-71
2022/10/19 06:01:00;;;;;;;10.68;2.58;;;10.10;99.90;;;;;;4950301;28;20074;-70
2022/10/19 06:03:27;;;;;;;14.18;2.67;;;10.10;99.90;;;;;;4950414;28;20054;-72
2022/10/19 06:05:54;;;;;;;13.35;2.40;;;10.10;99.90;;;;;;4950133;28;20051;-72
2022/10/19 06:08:21;;;;;;;15.73;2.97;;;10.10;99.90;;;;;;4950414;28;20533;-71
2022/10/19 06:10:48;;;;;;;12.68;2.45;;;10.10;99.90;;;;;;4953374;28;20406;-72
2022/10/19 06:13:15;;;;;;;8.68;2.30;;;10.10;99.90;;;;;;4951374;28;20043;-72
2022/10/19 06:15:40;;;;;;;13.88;2.17;;;10.10;99.90;;;;;;4946946;28;20053;-70
2022/10/19 06:18:07;;;;;;;14.18;2.10;;;10.10;99.90;;;;;;4951241;28;20043;-71
2022/10/19 06:20:35;;;;;;;16.98;2.70;;;10.10;99.90;;;;;;4955654;28;20493;-72
2022/10/19 06:23:01;;;;;;;10.00;1.90;;;10.10;99.90;;;;;;4956673;28;20482;-71
2022/10/19 06:25:28;;;;;;;16.40;2.50;;;10.10;99.90;;;;;;4951234;28;20046;-72
2022/10/19 06:27:53;;;;;;;9.10;1.75;;;10.10;99.90;;;;;;4955667;28;20035;-71
2022/10/19 06:30:19;;;;;;;11.13;2.50;;;10.20;99.90;;;;;;4951444;28;20042;-72
2022/10/19 06:32:44;;;;;;;14.70;2.25;;;10.10;99.90;;;;;;4949283;28;20506;-71
2022/10/19 06:35:10;;;;;;;11.57;2.00;;;10.20;99.90;;;;;;4959174;28;20194;-71
2022/10/19 06:37:35;;;;;;;16.40;2.67;;;10.20;99.90;;;;;;4948334;28;20043;-70
2022/10/19 06:40:01;;;;;;;11.25;2.10;;;10.20;99.90;;;;;;4946069;28;20453;-71
2022/10/19 06:42:27;;;;;;;12.20;1.77;;;10.30;99.90;;;;;;4957665;28;20458;-70
2022/10/19 06:44:52;;;;;;;10.65;1.98;;;10.20;99.90;;;;;;4947249;28;20039;-71
2022/10/19 06:47:18;;;;;;;11.40;1.85;;;10.30;99.90;;;;;;4948733;28;20126;-71
2022/10/19 06:49:44;;;;;;;9.02;1.80;;;10.40;99.90;;;;;;4950473;28;20039;-66
2022/10/19 06:52:09;;;;;;;17.02;2.25;;;10.40;99.90;;;;;;4953321;28;20034;-67
2022/10/19 06:54:35;;;;;;;13.75;1.70;;;10.40;99.90;;;;;;4954574;28;20457;-69
2022/10/19 06:57:00;;;;;;;12.90;1.85;;;10.40;99.90;;;;;;4954811;28;20055;-68
2022/10/19 06:59:26;;;;;;;14.32;2.00;;;10.50;99.90;;;;;;4947230;28;20395;-68
2022/10/19 07:01:51;;;;;;;16.05;2.20;;;10.50;99.90;;;;;;4946912;28;20485;-67
2022/10/19 07:04:17;;;;;;;15.20;2.60;;;10.50;99.90;;;;;;4945572;28;20067;-69
2022/10/19 07:06:42;;;;;;;11.40;2.20;;;10.60;99.90;;;;;;4947002;28;20070;-69
2022/10/19 07:09:08;;;;;;;10.48;2.10;;;10.60;99.90;;;;;;4951276;28;20048;-68
2022/10/19 07:11:34;;;;;;;16.35;2.05;;;10.70;99.90;;;;;;4947257;28;20048;-67
2022/10/19 07:13:59;;;;;;;14.38;2.33;;;10.80;99.90;;;;;;4948764;28;20047;-69
2022/10/19 07:16:25;;;;;;;10.57;2.00;;;10.80;99.90;;;;;;4956495;28;20098;-68
2022/10/19 07:18:51;;;;;;;9.32;1.75;;;10.90;99.90;;;;;;4954312;28;20047;-68
2022/10/19 07:21:18;;;;;;;13.10;1.95;;;10.90;99.90;;;;;;4953101;28;20051;-69
2022/10/19 07:23:46;;;;;;;15.38;2.38;;;11.00;99.90;;;;;;4952940;28;20047;-67
2022/10/19 07:26:14;;;;;;;14.38;2.03;;;11.10;99.90;;;;;;4955415;28;20508;-69
2022/10/19 07:28:42;;;;;;;14.57;1.88;;;11.10;99.90;;;;;;4957684;28;20121;-67
2022/10/19 07:31:10;;;;;;;15.93;2.28;;;11.20;99.90;;;;;;4950270;28;20177;-67
2022/10/19 07:33:36;;;;;;;20.08;2.10;;;11.20;99.90;;;;;;4954614;28;20495;-69
2022/10/19 07:36:04;;;;;;;17.48;2.47;;;11.30;99.90;;;;;;4960532;28;20046;-69
2022/10/19 07:38:30;;;;;;;11.00;1.92;;;11.30;99.90;;;;;;4960197;28;20047;-70
2022/10/19 07:41:11;;;;;;;15.10;2.03;;;11.30;99.90;;;;;;4955916;28;20039;-70
2022/10/19 07:43:38;;;;;;;10.80;2.20;;;11.30;99.90;;;;;;4953086;28;20051;-67
2022/10/19 07:46:07;;;;;;;10.10;1.88;;;11.40;99.90;;;;;;4955785;28;20509;-68
2022/10/19 07:48:33;;;;;;;14.23;1.90;;;11.40;99.90;;;;;;4959071;28;20073;-70
2022/10/19 07:51:01;;;;;;;14.10;1.98;;;11.50;99.90;;;;;;4957041;28;20047;-69
2022/10/19 07:53:27;;;;;;;11.52;1.90;;;11.40;99.90;;;;;;4958376;28;20047;-70
2022/10/19 07:55:53;;;;;;;12.70;2.17;;;11.50;99.90;;;;;;4953693;28;20066;-70
2022/10/19 07:58:19;;;;;;;11.10;2.17;;;11.50;99.90;;;;;;4960256;28;20186;-70
2022/10/19 08:00:44;;;;;;;14.73;2.20;;;11.50;99.90;;;;;;4961903;28;20039;-70
2022/10/19 08:03:10;;;;;;;11.73;2.13;;;11.60;99.90;;;;;;4954786;28;20051;-69
2022/10/19 08:05:36;;;;;;;8.75;1.52;;;11.60;99.90;;;;;;4960533;28;20441;-70
2022/10/19 08:08:02;;;;;;;10.10;1.70;;;11.60;99.90;;;;;;4959492;28;20046;-69
2022/10/19 08:10:28;;;;;;;13.30;2.60;;;11.70;99.90;;;;;;4960179;28;20065;-69
2022/10/19 08:12:53;;;;;;;19.38;2.13;;;11.70;99.90;;;;;;4954020;28;20553;-70
2022/10/19 08:15:19;;;;;;;15.02;2.38;;;11.80;99.90;;;;;;4961175;28;20039;-70
2022/10/19 08:17:44;;;;;;;17.17;2.85;;;11.80;99.90;;;;;;4958265;28;20043;-70
2022/10/19 08:20:10;;;;;;;12.35;2.38;;;11.80;99.90;;;;;;4953753;28;20047;-69
2022/10/19 08:22:36;;;;;;;14.60;2.50;;;11.90;99.90;;;;;;4956941;28;20042;-70
2022/10/19 08:25:01;;;;;;;11.98;2.10;;;11.90;99.90;;;;;;4953537;28;20047;-70
2022/10/19 08:27:28;;;;;;;13.60;2.50;;;12.00;99.90;;;;;;4954524;28;20039;-70
2022/10/19 08:29:53;;;;;;;13.32;2.60;;;12.00;99.90;;;;;;4956114;28;20038;-70
2022/10/19 08:32:19;;;;;;;13.77;2.10;;;12.00;99.90;;;;;;4950766;28;20119;-71
2022/10/19 08:34:45;;;;;;;11.82;2.03;;;12.00;99.90;;;;;;4962394;28;20055;-70
2022/10/19 08:37:10;;;;;;;14.98;2.72;;;12.00;99.90;;;;;;4953784;28;20402;-69
2022/10/19 08:39:36;;;;;;;8.68;2.30;;;12.00;99.90;;;;;;4956573;28;20080;-70
2022/10/19 08:42:03;;;;;;;15.10;2.22;;;12.00;99.90;;;;;;4953358;28;20055;-70
2022/10/19 08:44:56;;;;;;;14.85;2.40;;;12.00;99.90;;;;;;4956065;28;20040;-69
2022/10/19 08:48:00;;;;;;;14.10;2.17;;;12.10;99.90;;;;;;4956768;28;20043;-70
2022/10/19 08:50:32;;;;;;;12.98;2.08;;;12.20;99.90;;;;;;4925005;29;20046;-69
2022/10/19 08:53:10;;;;;;;10.07;1.92;;;12.20;99.90;;;;;;4951608;28;20102;-69
2022/10/19 08:55:50;;;;;;;7.18;1.90;;;12.30;99.90;;;;;;4952340;28;20447;-70
2022/10/19 08:58:23;;;;;;;10.38;1.65;;;12.40;99.90;;;;;;4961270;28;20483;-70
2022/10/19 09:01:00;;;;;;;11.68;1.98;;;12.40;99.90;;;;;;4958343;28;20066;-70
2022/10/19 09:03:44;;;;;;;12.23;2.00;;;12.50;99.90;;;;;;4949094;28;20058;-69
2022/10/19 09:06:34;;;;;;;15.48;2.17;;;12.60;99.90;;;;;;4953209;28;20047;-70
2022/10/19 09:09:00;;;;;;;8.32;1.85;;;12.60;99.90;;;;;;4959598;28;20047;-70
2022/10/19 09:11:35;;;;;;;10.43;2.25;;;12.70;99.90;;;;;;4952378;28;20066;-68
2022/10/19 09:14:17;;;;;;;12.43;1.75;;;12.80;99.90;;;;;;4953838;28;20595;-69
2022/10/19 09:16:42;;;;;;;14.13;2.15;;;12.90;99.90;;;;;;4951270;28;20046;-70
2022/10/19 09:19:16;;;;;;;8.65;2.10;;;12.90;99.90;;;;;;4952591;28;20062;-70
2022/10/19 09:21:47;;;;;;;10.77;2.15;;;12.90;99.90;;;;;;4956975;28;20070;-70
2022/10/19 09:24:26;;;;;;;11.57;1.73;;;13.00;99.90;;;;;;4958292;28;20391;-70
2022/10/19 09:26:55;;;;;;;13.68;2.33;;;13.00;99.90;;;;;;4956950;28;20073;-70
2022/10/19 09:29:42;;;;;;;12.00;1.90;;;13.10;99.90;;;;;;4954720;28;20072;-70
2022/10/19 09:32:14;;;;;;;13.52;1.85;;;13.10;99.90;;;;;;4954813;28;20034;-70
2022/10/19 09:34:56;;;;;;;14.18;2.33;;;13.00;99.90;;;;;;4960902;28;20073;-68
2022/10/19 09:37:23;;;;;;;11.13;2.10;;;13.00;99.90;;;;;;4960324;28;20538;-71
2022/10/19 09:39:48;;;;;;;11.15;1.92;;;13.10;99.90;;;;;;4955340;28;20047;-70
2022/10/19 09:42:22;;;;;;;12.52;1.60;;;13.20;99.90;;;;;;4954179;28;20519;-71
2022/10/19 09:44:50;;;;;;;10.00;1.70;;;13.30;99.90;;;;;;4963916;28;20039;-70
2022/10/19 09:47:35;;;;;;;15.18;1.98;;;13.30;99.90;;;;;;4952146;29;20078;-70
2022/10/19 09:50:22;;;;;;;10.57;2.00;;;13.30;99.90;;;;;;4945463;28;20047;-67
2022/10/19 09:52:55;;;;;;;10.32;1.83;;;13.40;99.90;;;;;;4952302;28;20042;-69
2022/10/19 09:55:36;;;;;;;11.32;1.98;;;13.40;99.90;;;;;;4954375;28;20402;-68
2022/10/19 09:58:24;;;;;;;12.18;1.73;;;13.40;99.90;;;;;;4959644;28;20042;-70
2022/10/19 10:00:55;;;;;;;9.25;1.63;;;13.50;99.90;;;;;;4948603;28;20046;-70
2022/10/19 10:03:26;;;;;;;13.20;1.98;;;13.60;99.90;;;;;;4949641;28;20097;-70
2022/10/19 10:05:54;;;;;;;10.07;2.05;;;13.60;99.90;;;;;;4951790;28;21039;-70
2022/10/19 10:08:24;;;;;;;11.32;1.70;;;13.70;99.90;;;;;;4956809;28;20051;-70
2022/10/19 10:11:02;;;;;;;10.98;1.60;;;13.70;99.90;;;;;;4950155;28;20063;-70
2022/10/19 10:13:27;;;;;;;8.57;1.65;;;13.80;99.90;;;;;;4952079;29;20050;-69
2022/10/19 10:16:00;;;;;;;13.57;1.73;;;13.80;99.90;;;;;;4956875;28;20055;-68
2022/10/19 10:18:26;;;;;;;;;;;13.80;99.90;;;;;;4950488;28;20058;-70
2022/10/19 10:21:02;;;;;;;9.27;1.85;;;13.80;99.90;;;;;;4947722;28;20009;-70
2022/10/19 10:23:34;;;;;;;7.85;1.30;;;13.90;99.90;;;;;;4949721;28;20043;-70
2022/10/19 10:26:01;;;;;;;10.18;1.52;;;13.90;99.90;;;;;;4959819;28;20043;-69
2022/10/19 10:28:28;;;;;;;8.50;1.45;;;14.00;99.90;;;;;;4949958;28;20066;-67
2022/10/19 10:31:07;;;;;;;8.50;1.65;;;14.00;99.90;;;;;;4951298;28;20078;-70
2022/10/19 10:33:36;;;;;;;7.47;1.88;;;14.10;99.90;;;;;;4956089;28;20506;-70
2022/10/19 10:36:08;;;;;;;15.30;2.15;;;14.10;99.90;;;;;;4953070;28;20042;-67
2022/10/19 10:39:03;;;;;;;9.07;1.63;;;14.20;99.90;;;;;;4946976;28;20054;-70
2022/10/19 10:41:36;;;;;;;8.85;1.85;;;14.20;99.90;;;;;;4946611;28;20039;-71
2022/10/19 10:44:05;;;;;;;9.98;2.30;;;14.30;99.90;;;;;;4945040;28;20521;-69
2022/10/19 10:46:41;;;;;;;9.73;1.92;;;14.30;99.90;;;;;;4946837;28;20050;-67
2022/10/19 10:49:20;;;;;;;6.45;1.67;;;14.40;99.90;;;;;;4949404;28;20458;-69
2022/10/19 10:51:50;;;;;;;8.32;1.77;;;14.40;99.90;;;;;;4952862;28;20118;-71
2022/10/19 10:54:19;;;;;;;9.98;1.50;;;14.40;99.90;;;;;;4958092;28;20062;-71
2022/10/19 10:57:15;;;;;;;7.13;1.60;;;14.50;99.90;;;;;;4953913;28;20047;-71
2022/10/19 10:59:43;;;;;;;10.00;1.92;;;14.70;99.90;;;;;;4956760;28;20043;-69
2022/10/19 11:02:22;;;;;;;8.88;1.73;;;15.00;99.90;;;;;;4948347;28;20171;-70
2022/10/19 11:04:55;;;;;;;10.18;1.83;;;15.30;99.90;;;;;;4956153;28;20476;-71
2022/10/19 11:07:23;;;;;;;11.00;1.90;;;15.50;99.90;;;;;;4960747;28;20486;-70
2022/10/19 11:09:57;;;;;;;10.40;1.70;;;15.60;99.90;;;;;;4956905;28;20391;-71
2022/10/19 11:12:40;;;;;;;8.32;1.60;;;15.70;99.90;;;;;;4964944;28;20051;-71
2022/10/19 11:15:24;;;;;;;10.25;1.80;;;15.90;99.90;;;;;;4953618;28;20051;-70
2022/10/19 11:18:15;;;;;;;6.80;1.65;;;16.20;99.90;;;;;;4962393;28;20042;-70
2022/10/19 11:21:08;;;;;;;9.73;1.50;;;16.40;99.90;;;;;;4960168;28;20047;-70
2022/10/19 11:23:41;;;;;;;6.18;1.50;;;16.70;99.90;;;;;;4957740;28;20054;-69
2022/10/19 11:26:44;;;;;;;7.50;1.63;;;17.10;99.90;;;;;;4958203;28;20445;-70
2022/10/19 11:29:31;;;;;;;6.07;1.40;;;17.20;99.90;;;;;;4962677;28;20454;-71
2022/10/19 11:31:57;;;;;;;7.65;1.65;;;17.30;99.90;;;;;;4968906;28;20559;-71
2022/10/19 11:34:25;;;;;;;12.48;1.92;;;17.20;99.90;;;;;;4961254;28;20047;-71
2022/10/19 11:37:19;;;;;;;12.60;1.75;;;17.10;99.90;;;;;;4958083;28;20126;-70
2022/10/19 11:39:48;;;;;;;11.15;1.80;;;16.90;99.90;;;;;;4963602;28;20043;-70
2022/10/19 11:42:51;;;;;;;6.82;1.65;;;16.80;99.90;;;;;;4960590;28;20047;-69
2022/10/19 11:45:44;;;;;;;9.55;1.85;;;16.80;99.90;;;;;;4951155;28;20134;-70
2022/10/19 11:48:43;;;;;;;10.43;1.63;;;16.70;99.90;;;;;;4950342;28;20039;-70
2022/10/19 11:51:24;;;;;;;8.35;1.77;;;16.60;99.90;;;;;;4951126;28;20426;-69
2022/10/19 11:54:00;;;;;;;8.52;1.92;;;16.70;99.90;;;;;;4953937;28;20043;-70
2022/10/19 11:57:00;;;;;;;6.88;1.48;;;16.90;99.90;;;;;;4957144;28;20043;-70
2022/10/19 11:59:50;;;;;;;6.15;1.30;;;17.20;99.90;;;;;;4949116;28;20138;-70
2022/10/19 12:02:49;;;;;;;7.75;1.60;;;17.40;99.90;;;;;;4951695;28;20473;-71
2022/10/19 12:05:23;;;;;;;8.38;1.75;;;17.50;99.90;;;;;;4953807;28;20094;-69
2022/10/19 12:07:55;;;;;;;8.45;1.85;;;17.60;99.90;;;;;;4958341;28;20039;-69
2022/10/19 12:10:20;;;;;;;6.15;1.48;;;17.70;99.90;;;;;;4955222;28;20094;-71
2022/10/19 12:12:50;;;;;;;5.82;1.50;;;17.60;99.90;;;;;;4954222;28;20047;-71
2022/10/19 12:15:31;;;;;;;5.05;1.38;;;17.70;99.90;;;;;;4955341;28;20050;-70
2022/10/19 12:18:08;;;;;;;6.82;1.50;;;17.60;99.90;;;;;;4959589;28;20502;-71
2022/10/19 12:20:50;;;;;;;11.70;2.03;;;17.60;99.90;;;;;;4955913;28;20040;-70
2022/10/19 12:23:36;;;;;;;5.72;1.50;;;17.70;99.90;;;;;;4955296;28;20043;-70
2022/10/19 12:26:07;;;;;;;9.30;1.55;;;17.70;99.90;;;;;;4951540;28;20131;-71
2022/10/19 12:28:37;;;;;;;8.32;1.45;;;17.80;99.90;;;;;;4943169;29;20568;-71
2022/10/19 12:31:04;;;;;;;8.07;1.65;;;17.80;99.90;;;;;;4952209;29;20468;-71
2022/10/19 12:33:55;;;;;;;9.65;2.00;;;17.90;99.90;;;;;;4949606;28;20201;-71
2022/10/19 12:36:27;;;;;;;8.60;1.63;;;17.90;99.90;;;;;;4952163;28;20075;-71
2022/10/19 12:39:29;;;;;;;8.70;1.83;;;17.80;99.90;;;;;;4960287;28;20060;-70
2022/10/19 12:42:02;;;;;;;8.60;1.73;;;17.80;99.90;;;;;;4953660;28;20055;-71
2022/10/19 12:44:43;;;;;;;6.32;1.65;;;17.80;99.90;;;;;;4952947;28;20039;-70
2022/10/19 12:47:18;;;;;;;7.97;1.95;;;17.80;99.40;;;;;;4950493;28;20070;-70
2022/10/19 12:49:47;;;;;;;9.77;1.70;;;17.80;99.90;;;;;;4954699;28;20067;-70
2022/10/19 12:52:33;;;;;;;8.88;1.55;;;17.80;99.40;;;;;;4964274;28;20030;-71
2022/10/19 12:55:15;;;;;;;8.15;1.48;;;17.80;99.00;;;;;;4951489;28;20509;-70
2022/10/19 12:57:47;;;;;;;11.35;2.20;;;17.90;98.50;;;;;;4951414;28;20057;-67
2022/10/19 13:00:24;;;;;;;9.80;1.75;;;17.90;98.50;;;;;;4949074;28;20039;-70
2022/10/19 13:03:14;;;;;;;8.55;1.70;;;18.00;98.90;;;;;;4951037;28;20046;-71
2022/10/19 13:05:40;;;;;;;9.88;1.80;;;18.10;99.20;;;;;;4951233;28;20067;-70